Time;durP1;ratioP1;P1;durP2;ratioP2;P2;SDS_P1;SDS_P2;PMS_P1;PMS_P2;Temp;Humidity;BMP_temperature;BMP_pressure;BME280_temperature;BME280_humidity;BME280_pressure;Samples;Min_cycle;Max_cycle;Signal;HPM_P1;HPM_P2
2023/11/25 00:00:47;;;;;;;0.57;0.40;;;15.40;63.60;;;;;;5097224;28;20035;-65
2023/11/25 00:03:13;;;;;;;0.47;0.43;;;15.40;63.00;;;;;;5099328;28;20119;-59
2023/11/25 00:05:39;;;;;;;1.05;0.25;;;15.40;63.00;;;;;;5106028;28;20067;-65
2023/11/25 00:08:05;;;;;;;0.60;0.40;;;15.40;62.90;;;;;;5092265;28;20118;-65
2023/11/25 00:10:30;;;;;;;1.00;0.52;;;15.40;62.80;;;;;;5097980;28;20036;-65
2023/11/25 00:12:56;;;;;;;1.65;0.40;;;15.40;63.40;;;;;;5095304;28;20032;-65
2023/11/25 00:15:24;;;;;;;0.80;0.38;;;15.40;62.50;;;;;;5097848;28;20064;-64
2023/11/25 00:17:53;;;;;;;0.30;0.30;;;15.40;62.60;;;;;;5100369;28;20521;-65
2023/11/25 00:20:22;;;;;;;1.67;0.55;;;15.40;62.50;;;;;;5098656;28;20043;-58
2023/11/25 00:22:48;;;;;;;1.95;0.40;;;15.40;62.60;;;;;;5097945;28;20055;-65
2023/11/25 00:25:15;;;;;;;1.85;0.68;;;15.40;62.40;;;;;;5104344;28;20031;-65
2023/11/25 00:27:41;;;;;;;0.88;0.40;;;15.30;62.40;;;;;;5102739;28;20039;-65
2023/11/25 00:30:07;;;;;;;0.60;0.32;;;15.30;62.40;;;;;;5101706;28;20399;-64
2023/11/25 00:32:40;;;;;;;0.55;0.30;;;15.40;62.50;;;;;;5094275;28;20042;-65
2023/11/25 00:35:07;;;;;;;0.65;0.40;;;15.30;62.50;;;;;;5095789;28;20035;-65
2023/11/25 00:37:34;;;;;;;0.63;0.32;;;15.30;62.60;;;;;;5094194;28;20042;-64
2023/11/25 00:39:59;;;;;;;1.17;0.65;;;15.40;62.60;;;;;;5103691;28;20115;-65
2023/11/25 00:42:29;;;;;;;0.30;0.30;;;15.40;62.50;;;;;;5101262;28;20096;-65
2023/11/25 00:44:54;;;;;;;0.85;0.68;;;15.30;62.40;;;;;;5097919;28;20031;-65
2023/11/25 00:47:22;;;;;;;0.55;0.40;;;15.30;62.10;;;;;;5100919;28;20024;-65
2023/11/25 00:49:49;;;;;;;0.52;0.35;;;15.30;62.30;;;;;;5096327;28;20112;-65
2023/11/25 00:52:15;;;;;;;0.57;0.45;;;15.30;62.20;;;;;;5096306;28;20494;-64
2023/11/25 00:54:40;;;;;;;1.63;0.50;;;15.30;62.30;;;;;;5097203;28;20606;-65
2023/11/25 00:57:05;;;;;;;0.68;0.43;;;15.30;62.00;;;;;;5105115;28;20389;-65
2023/11/25 00:59:31;;;;;;;1.38;0.60;;;15.30;62.00;;;;;;5095854;28;20502;-65
2023/11/25 01:01:57;;;;;;;0.57;0.40;;;15.30;62.10;;;;;;5090201;28;20494;-65
2023/11/25 01:04:22;;;;;;;0.52;0.40;;;15.30;62.10;;;;;;5088467;28;20265;-65
2023/11/25 01:06:48;;;;;;;0.80;0.30;;;15.30;62.20;;;;;;5094726;28;20035;-65
2023/11/25 01:09:16;;;;;;;0.90;0.40;;;15.30;61.50;;;;;;5092509;28;20473;-63
2023/11/25 01:11:42;;;;;;;0.82;0.55;;;15.30;61.90;;;;;;5097637;28;20024;-65
2023/11/25 01:14:08;;;;;;;2.30;0.60;;;15.20;62.20;;;;;;5095530;28;20557;-65
2023/11/25 01:16:34;;;;;;;0.98;0.40;;;15.30;62.10;;;;;;5096771;28;20572;-65
2023/11/25 01:18:59;;;;;;;0.35;0.20;;;15.30;62.10;;;;;;5091696;28;20111;-65
2023/11/25 01:21:25;;;;;;;1.40;0.38;;;15.30;62.10;;;;;;5102712;28;20034;-64
2023/11/25 01:23:50;;;;;;;0.25;0.20;;;15.30;62.20;;;;;;5099257;28;20031;-65
2023/11/25 01:26:16;;;;;;;1.13;0.40;;;15.30;62.20;;;;;;5104831;28;20047;-64
2023/11/25 01:28:42;;;;;;;0.73;0.30;;;15.30;62.30;;;;;;5093270;28;20028;-65
2023/11/25 01:31:10;;;;;;;0.95;0.40;;;15.30;62.20;;;;;;5095251;28;20032;-60
2023/11/25 01:33:36;;;;;;;1.40;0.40;;;15.30;62.10;;;;;;5097965;28;20028;-65
2023/11/25 01:36:01;;;;;;;0.30;0.30;;;15.30;62.10;;;;;;5095154;28;20092;-65
2023/11/25 01:38:27;;;;;;;1.10;0.57;;;15.30;62.20;;;;;;5098728;28;20255;-65
2023/11/25 01:40:55;;;;;;;1.08;0.43;;;15.20;62.20;;;;;;5095951;28;20040;-65
2023/11/25 01:43:25;;;;;;;0.73;0.45;;;15.20;62.20;;;;;;5098204;28;20077;-64
2023/11/25 01:45:52;;;;;;;0.60;0.40;;;15.30;62.20;;;;;;5096383;28;20042;-65
2023/11/25 01:48:19;;;;;;;1.58;0.43;;;15.20;62.00;;;;;;5098310;28;20023;-65
2023/11/25 01:50:45;;;;;;;0.73;0.30;;;15.20;62.20;;;;;;5098143;28;20028;-61
2023/11/25 01:53:14;;;;;;;0.95;0.30;;;15.20;62.20;;;;;;5096554;28;20028;-65
2023/11/25 01:55:40;;;;;;;0.50;0.30;;;15.20;62.90;;;;;;5095617;28;20098;-65
2023/11/25 01:58:07;;;;;;;0.40;0.30;;;15.20;62.20;;;;;;5101439;28;20122;-66
2023/11/25 02:00:34;;;;;;;0.60;0.43;;;15.30;62.30;;;;;;5099463;28;20032;-64
2023/11/25 02:03:00;;;;;;;0.40;0.40;;;15.20;62.30;;;;;;5101294;28;20425;-66
2023/11/25 02:05:27;;;;;;;0.57;0.40;;;15.30;62.40;;;;;;5101361;28;20028;-65
2023/11/25 02:07:52;;;;;;;1.35;0.70;;;15.20;62.30;;;;;;5102434;28;20119;-65
2023/11/25 02:10:19;;;;;;;0.57;0.40;;;15.20;62.40;;;;;;5101069;28;20112;-65
2023/11/25 02:12:46;;;;;;;0.82;0.40;;;15.20;62.40;;;;;;5099953;28;20070;-65
2023/11/25 02:15:14;;;;;;;0.40;0.38;;;15.30;62.50;;;;;;5100087;28;20028;-65
2023/11/25 02:17:44;;;;;;;0.80;0.40;;;15.20;62.40;;;;;;5094249;28;20510;-65
2023/11/25 02:20:13;;;;;;;0.52;0.30;;;15.30;62.50;;;;;;5098149;28;20039;-64
2023/11/25 02:22:39;;;;;;;0.30;0.30;;;15.30;62.40;;;;;;5102716;28;20659;-66
2023/11/25 02:25:05;;;;;;;2.03;0.43;;;15.30;62.50;;;;;;5095971;28;20031;-65
2023/11/25 02:27:31;;;;;;;1.27;0.32;;;15.30;62.50;;;;;;5097470;28;20197;-65
2023/11/25 02:29:56;;;;;;;0.40;0.30;;;15.30;62.60;;;;;;5100228;28;20028;-65
2023/11/25 02:32:23;;;;;;;0.95;0.40;;;15.30;62.60;;;;;;5100550;28;20558;-65
2023/11/25 02:34:48;;;;;;;1.08;0.52;;;15.30;62.60;;;;;;5098201;28;20035;-65
2023/11/25 02:37:15;;;;;;;0.40;0.30;;;15.20;62.50;;;;;;5098717;28;20036;-66
2023/11/25 02:39:41;;;;;;;0.98;0.40;;;15.30;62.60;;;;;;5097305;28;20031;-63
2023/11/25 02:42:09;;;;;;;0.50;0.38;;;15.20;62.50;;;;;;5097309;28;20601;-64
2023/11/25 02:44:35;;;;;;;0.77;0.40;;;15.30;62.60;;;;;;5097350;28;20086;-66
2023/11/25 02:47:02;;;;;;;1.95;0.60;;;15.30;62.50;;;;;;5099622;28;20358;-65
2023/11/25 02:49:27;;;;;;;0.82;0.40;;;15.20;62.50;;;;;;5102096;28;20123;-66
2023/11/25 02:51:56;;;;;;;0.70;0.40;;;15.30;62.60;;;;;;5100242;28;20032;-65
2023/11/25 02:54:23;;;;;;;1.13;0.38;;;15.20;62.50;;;;;;5097666;28;20043;-65
2023/11/25 02:56:49;;;;;;;0.63;0.50;;;15.30;62.60;;;;;;5098974;28;20028;-66
2023/11/25 02:59:17;;;;;;;0.40;0.38;;;15.30;62.70;;;;;;5099992;28;20024;-65
2023/11/25 03:01:52;;;;;;;0.98;0.30;;;15.30;62.70;;;;;;5095117;28;20056;-65
2023/11/25 03:04:19;;;;;;;1.95;0.43;;;15.30;62.70;;;;;;5099289;28;20097;-66
2023/11/25 03:06:45;;;;;;;0.73;0.28;;;15.30;62.70;;;;;;5100504;28;20062;-65
2023/11/25 03:09:13;;;;;;;0.70;0.32;;;15.20;62.60;;;;;;5099490;28;20035;-65
2023/11/25 03:11:39;;;;;;;0.40;0.30;;;15.20;62.60;;;;;;5099845;28;20295;-65
2023/11/25 03:14:05;;;;;;;0.75;0.30;;;15.20;62.60;;;;;;5096499;28;20537;-65
2023/11/25 03:16:32;;;;;;;0.52;0.43;;;15.20;62.60;;;;;;5097959;28;20039;-66
2023/11/25 03:18:57;;;;;;;1.23;0.50;;;15.20;62.60;;;;;;5098420;28;20030;-65
2023/11/25 03:21:24;;;;;;;0.30;0.30;;;15.20;62.60;;;;;;5098687;28;20027;-65
2023/11/25 03:23:50;;;;;;;0.68;0.47;;;15.20;62.70;;;;;;5098741;28;20028;-65
2023/11/25 03:26:15;;;;;;;0.30;0.25;;;15.20;62.70;;;;;;5092315;28;20081;-66
2023/11/25 03:28:41;;;;;;;0.68;0.40;;;15.20;62.60;;;;;;5081496;28;20029;-66
2023/11/25 03:31:10;;;;;;;0.40;0.40;;;15.20;62.70;;;;;;5097277;28;20090;-65
2023/11/25 03:33:36;;;;;;;0.75;0.57;;;15.20;62.70;;;;;;5095699;28;20497;-65
2023/11/25 03:36:03;;;;;;;1.02;0.47;;;15.20;62.70;;;;;;5102906;28;21556;-65
2023/11/25 03:38:29;;;;;;;1.38;0.40;;;15.20;62.70;;;;;;5098993;28;20111;-65
2023/11/25 03:40:55;;;;;;;1.27;0.43;;;15.20;62.80;;;;;;5092876;28;20039;-65
2023/11/25 03:43:21;;;;;;;1.00;0.30;;;15.20;63.30;;;;;;5091591;28;20032;-65
2023/11/25 03:45:47;;;;;;;1.10;0.40;;;15.20;62.70;;;;;;5097889;28;20068;-66
2023/11/25 03:48:14;;;;;;;0.28;0.28;;;15.20;62.80;;;;;;5095573;28;20486;-66
2023/11/25 03:50:39;;;;;;;0.95;0.50;;;15.20;62.90;;;;;;5098353;28;20031;-65
2023/11/25 03:53:05;;;;;;;2.17;0.45;;;15.30;62.80;;;;;;5101230;28;20745;-64
2023/11/25 03:55:30;;;;;;;0.50;0.40;;;15.20;62.70;;;;;;5093677;28;20028;-64
2023/11/25 03:57:56;;;;;;;0.60;0.30;;;15.20;62.70;;;;;;5095415;28;20031;-66
2023/11/25 04:00:22;;;;;;;0.57;0.38;;;15.30;63.00;;;;;;5096738;28;20020;-64
2023/11/25 04:02:48;;;;;;;0.73;0.40;;;15.20;62.80;;;;;;5096968;28;20028;-65
2023/11/25 04:05:16;;;;;;;0.40;0.38;;;15.20;62.90;;;;;;5098470;28;20059;-65
2023/11/25 04:07:41;;;;;;;0.40;0.30;;;15.20;62.80;;;;;;5091460;28;20501;-65
2023/11/25 04:10:18;;;;;;;1.00;0.40;;;15.20;62.80;;;;;;5098962;28;20093;-65
2023/11/25 04:12:48;;;;;;;0.30;0.20;;;15.20;62.90;;;;;;5096861;28;20059;-66
2023/11/25 04:15:16;;;;;;;0.93;0.57;;;15.20;62.80;;;;;;5094758;28;20059;-65
2023/11/25 04:17:42;;;;;;;0.68;0.43;;;15.20;62.80;;;;;;5096435;28;20105;-66
2023/11/25 04:20:13;;;;;;;0.57;0.45;;;15.20;62.80;;;;;;5099374;28;20541;-65
2023/11/25 04:22:45;;;;;;;1.00;0.40;;;15.20;62.80;;;;;;5098168;28;20043;-65
2023/11/25 04:25:13;;;;;;;0.85;0.40;;;15.20;62.80;;;;;;5097293;28;20117;-66
2023/11/25 04:27:40;;;;;;;1.08;0.52;;;15.20;62.80;;;;;;5097934;28;20177;-65
2023/11/25 04:30:09;;;;;;;0.68;0.43;;;15.20;62.80;;;;;;5098819;28;20027;-65
2023/11/25 04:32:36;;;;;;;0.45;0.28;;;15.20;62.90;;;;;;5102481;28;20042;-65
2023/11/25 04:35:04;;;;;;;0.63;0.47;;;15.20;62.90;;;;;;5079819;28;20032;-66
2023/11/25 04:37:30;;;;;;;0.85;0.30;;;15.20;62.90;;;;;;5104737;28;20035;-65
2023/11/25 04:39:56;;;;;;;1.27;0.50;;;15.20;62.80;;;;;;5103930;28;20060;-65
2023/11/25 04:42:21;;;;;;;0.95;0.30;;;15.20;62.90;;;;;;5104117;28;20077;-65
2023/11/25 04:44:47;;;;;;;0.30;0.30;;;15.20;62.90;;;;;;5102574;28;20032;-65
2023/11/25 04:47:13;;;;;;;0.82;0.40;;;15.20;62.90;;;;;;5097433;28;20032;-66
2023/11/25 04:49:40;;;;;;;0.45;0.30;;;15.20;62.80;;;;;;5103477;28;20043;-65
2023/11/25 04:52:05;;;;;;;0.95;0.40;;;15.20;62.80;;;;;;5102904;28;20271;-65
2023/11/25 04:54:32;;;;;;;0.55;0.40;;;15.20;62.90;;;;;;5097913;28;20123;-66
2023/11/25 04:56:58;;;;;;;1.02;0.50;;;15.20;62.90;;;;;;5079341;28;20050;-65
2023/11/25 04:59:24;;;;;;;1.55;0.50;;;15.20;62.80;;;;;;5102186;28;20313;-65
2023/11/25 05:01:49;;;;;;;2.17;0.77;;;15.20;62.90;;;;;;5100463;28;20101;-66
2023/11/25 05:04:15;;;;;;;0.40;0.30;;;15.20;62.90;;;;;;5101797;28;20061;-66
2023/11/25 05:06:41;;;;;;;1.00;0.50;;;15.20;62.90;;;;;;5104124;28;20418;-66
2023/11/25 05:09:06;;;;;;;0.85;0.50;;;15.20;62.90;;;;;;5103374;28;20492;-66
2023/11/25 05:11:32;;;;;;;1.33;0.52;;;15.20;62.90;;;;;;5099712;28;20490;-66
2023/11/25 05:13:58;;;;;;;1.00;0.40;;;15.20;62.90;;;;;;5104021;28;20027;-67
2023/11/25 05:16:24;;;;;;;0.75;0.57;;;15.20;62.90;;;;;;5100285;28;20123;-65
2023/11/25 05:18:49;;;;;;;2.17;0.57;;;15.20;62.90;;;;;;5101611;28;20395;-64
2023/11/25 05:21:15;;;;;;;0.80;0.30;;;15.20;62.90;;;;;;5105140;28;20408;-64
2023/11/25 05:23:40;;;;;;;0.50;0.50;;;15.20;62.90;;;;;;5096011;28;20493;-65
2023/11/25 05:26:07;;;;;;;1.27;0.50;;;15.20;62.90;;;;;;5094880;28;20035;-66
2023/11/25 05:28:33;;;;;;;1.75;0.47;;;15.20;63.10;;;;;;5103438;28;20409;-67
2023/11/25 05:30:59;;;;;;;0.73;0.40;;;15.20;62.90;;;;;;5080699;28;20057;-66
2023/11/25 05:33:25;;;;;;;1.20;0.40;;;15.20;62.90;;;;;;5101760;28;20038;-65
2023/11/25 05:35:50;;;;;;;0.80;0.40;;;15.20;62.90;;;;;;5100795;28;20031;-66
2023/11/25 05:38:18;;;;;;;1.00;0.50;;;15.20;63.00;;;;;;5103181;28;20139;-64
2023/11/25 05:40:43;;;;;;;0.80;0.40;;;15.20;63.00;;;;;;5103481;28;20024;-63
2023/11/25 05:43:09;;;;;;;0.73;0.40;;;15.20;63.00;;;;;;5099428;28;20089;-63
2023/11/25 05:45:38;;;;;;;1.88;0.65;;;15.20;63.00;;;;;;5102406;28;20115;-65
2023/11/25 05:48:04;;;;;;;0.80;0.45;;;15.20;63.00;;;;;;5104299;28;20122;-66
2023/11/25 05:50:30;;;;;;;0.40;0.20;;;15.20;63.10;;;;;;5104782;28;20127;-65
2023/11/25 05:52:56;;;;;;;0.60;0.40;;;15.20;63.00;;;;;;5095017;28;20031;-65
2023/11/25 05:55:21;;;;;;;1.70;0.50;;;15.20;63.00;;;;;;5100733;28;20032;-65
2023/11/25 05:57:50;;;;;;;0.60;0.38;;;15.20;63.10;;;;;;5103094;28;20036;-65
2023/11/25 06:00:16;;;;;;;1.13;0.25;;;15.20;63.00;;;;;;5102787;28;20032;-65
2023/11/25 06:02:41;;;;;;;0.85;0.40;;;15.20;63.00;;;;;;5102278;28;20097;-65
2023/11/25 06:05:08;;;;;;;0.88;0.63;;;15.20;63.10;;;;;;5103338;28;20051;-65
2023/11/25 06:07:34;;;;;;;1.27;0.35;;;15.20;63.00;;;;;;5101515;28;20056;-63
2023/11/25 06:10:00;;;;;;;0.98;0.30;;;15.20;63.00;;;;;;5100238;28;20425;-66
2023/11/25 06:12:26;;;;;;;3.53;1.10;;;15.20;63.10;;;;;;5100363;28;20047;-66
2023/11/25 06:14:55;;;;;;;0.60;0.40;;;15.20;63.00;;;;;;5099701;28;20039;-65
2023/11/25 06:17:23;;;;;;;1.67;0.65;;;15.20;63.10;;;;;;5100339;28;20035;-64
2023/11/25 06:19:49;;;;;;;0.85;0.30;;;15.20;63.10;;;;;;5100555;28;20027;-64
2023/11/25 06:22:14;;;;;;;1.67;0.60;;;15.20;63.00;;;;;;5097177;28;20043;-63
2023/11/25 06:24:40;;;;;;;1.02;0.40;;;15.20;63.00;;;;;;5098707;28;20093;-64
2023/11/25 06:27:06;;;;;;;0.50;0.40;;;15.20;63.00;;;;;;5099633;28;20036;-64
2023/11/25 06:29:31;;;;;;;0.77;0.60;;;15.20;63.00;;;;;;5096228;28;20032;-63
2023/11/25 06:31:57;;;;;;;0.82;0.35;;;15.20;63.10;;;;;;5101948;28;20043;-64
2023/11/25 06:34:23;;;;;;;0.57;0.40;;;15.20;63.00;;;;;;5102853;28;20562;-65
2023/11/25 06:36:48;;;;;;;0.40;0.40;;;15.20;63.10;;;;;;5097074;28;20035;-63
2023/11/25 06:39:14;;;;;;;2.05;0.50;;;15.20;63.10;;;;;;5102361;28;20683;-65
2023/11/25 06:41:44;;;;;;;2.35;0.50;;;15.20;63.10;;;;;;5103470;28;20405;-66
2023/11/25 06:44:10;;;;;;;1.27;0.40;;;15.20;63.00;;;;;;5097643;28;20039;-65
2023/11/25 06:46:35;;;;;;;0.80;0.50;;;15.20;63.10;;;;;;5101327;28;20050;-65
2023/11/25 06:49:01;;;;;;;0.95;0.40;;;15.20;63.90;;;;;;5102775;28;20120;-65
2023/11/25 06:51:27;;;;;;;0.60;0.40;;;15.20;63.00;;;;;;5099592;28;20051;-64
2023/11/25 06:53:52;;;;;;;1.23;0.80;;;15.20;62.90;;;;;;5095589;28;20031;-65
2023/11/25 06:56:18;;;;;;;1.40;0.70;;;15.20;62.70;;;;;;5099159;28;20036;-66
2023/11/25 06:58:45;;;;;;;2.75;1.20;;;15.20;62.50;;;;;;5102611;28;20433;-65
2023/11/25 07:01:16;;;;;;;2.75;1.00;;;15.10;62.30;;;;;;5101801;28;20461;-63
2023/11/25 07:03:41;;;;;;;1.08;0.70;;;15.10;62.40;;;;;;5103551;28;20482;-64
2023/11/25 07:06:07;;;;;;;1.73;0.82;;;15.10;62.30;;;;;;5102745;28;20024;-64
2023/11/25 07:08:33;;;;;;;0.80;0.60;;;15.10;62.10;;;;;;5099488;28;20501;-65
2023/11/25 07:10:59;;;;;;;1.98;0.65;;;15.10;62.10;;;;;;5101022;28;20023;-64
2023/11/25 07:13:27;;;;;;;2.13;0.80;;;15.10;62.10;;;;;;5097753;28;20032;-63
2023/11/25 07:15:53;;;;;;;1.65;0.80;;;15.10;62.00;;;;;;5102946;28;20430;-65
2023/11/25 07:18:18;;;;;;;1.50;0.77;;;15.10;62.00;;;;;;5103325;28;20039;-64
2023/11/25 07:20:45;;;;;;;3.20;1.10;;;15.10;62.00;;;;;;5099765;28;20280;-65
2023/11/25 07:23:11;;;;;;;1.30;0.70;;;15.10;62.00;;;;;;5095709;28;20031;-65
2023/11/25 07:25:41;;;;;;;1.73;0.93;;;15.10;61.90;;;;;;5098879;28;20024;-64
2023/11/25 07:28:09;;;;;;;0.95;0.70;;;15.10;61.90;;;;;;5099786;28;20035;-63
2023/11/25 07:30:36;;;;;;;1.17;0.80;;;15.10;61.80;;;;;;5099766;28;20043;-65
2023/11/25 07:33:03;;;;;;;2.20;0.88;;;15.10;61.70;;;;;;5100093;28;20064;-66
2023/11/25 07:35:29;;;;;;;1.50;0.70;;;15.00;61.50;;;;;;5100182;28;20122;-65
2023/11/25 07:37:55;;;;;;;2.17;1.08;;;15.00;61.50;;;;;;5098810;28;20614;-66
2023/11/25 07:40:20;;;;;;;1.75;0.85;;;15.00;61.50;;;;;;5100994;28;20486;-66
2023/11/25 07:42:48;;;;;;;3.22;0.80;;;15.00;61.40;;;;;;5099440;28;20034;-67
2023/11/25 07:45:14;;;;;;;2.25;1.13;;;15.00;61.50;;;;;;5102581;28;20035;-65
2023/11/25 07:47:43;;;;;;;2.53;1.15;;;15.00;61.20;;;;;;5100984;28;20391;-66
2023/11/25 07:50:10;;;;;;;3.17;1.20;;;15.00;60.90;;;;;;5098203;28;20287;-63
2023/11/25 07:52:36;;;;;;;1.70;0.82;;;15.00;61.40;;;;;;5096319;28;20027;-65
2023/11/25 07:55:04;;;;;;;3.55;1.00;;;15.00;61.10;;;;;;5100403;28;20073;-66
2023/11/25 07:57:30;;;;;;;1.02;0.75;;;15.00;61.20;;;;;;5103404;28;20415;-65
2023/11/25 07:59:55;;;;;;;1.55;0.52;;;15.00;61.20;;;;;;5106398;28;20031;-65
2023/11/25 08:02:21;;;;;;;3.15;1.13;;;14.90;61.20;;;;;;5104853;28;20024;-65
2023/11/25 08:04:46;;;;;;;1.67;0.73;;;15.00;61.10;;;;;;5096759;28;20554;-63
2023/11/25 08:07:12;;;;;;;0.90;0.63;;;14.90;61.10;;;;;;5103882;28;20402;-63
2023/11/25 08:09:38;;;;;;;2.38;1.02;;;14.90;61.00;;;;;;5102558;28;20081;-65
2023/11/25 08:12:04;;;;;;;1.92;1.00;;;14.90;61.10;;;;;;5100389;28;20059;-65
2023/11/25 08:14:30;;;;;;;2.30;0.90;;;15.00;61.30;;;;;;5103871;28;20153;-66
2023/11/25 08:16:55;;;;;;;1.73;0.70;;;15.00;61.10;;;;;;5106174;28;20024;-64
2023/11/25 08:19:21;;;;;;;3.40;1.13;;;14.90;60.90;;;;;;5102774;28;20028;-65
2023/11/25 08:21:50;;;;;;;1.70;0.60;;;14.90;60.90;;;;;;5106832;28;20416;-65
2023/11/25 08:24:18;;;;;;;2.25;0.77;;;14.90;61.20;;;;;;5104306;28;20536;-64
2023/11/25 08:26:44;;;;;;;4.20;1.30;;;14.90;61.10;;;;;;5103591;28;20314;-65
2023/11/25 08:29:11;;;;;;;1.35;0.82;;;14.90;61.10;;;;;;5105801;28;20032;-64
2023/11/25 08:31:37;;;;;;;2.08;0.68;;;14.90;61.10;;;;;;5105218;28;20035;-65
2023/11/25 08:34:11;;;;;;;1.58;1.00;;;14.90;61.10;;;;;;5103058;28;20477;-66
2023/11/25 08:36:44;;;;;;;1.25;0.63;;;15.00;61.20;;;;;;5106815;28;20557;-65
2023/11/25 08:39:13;;;;;;;3.03;0.70;;;14.90;61.10;;;;;;5104217;28;20225;-65
2023/11/25 08:41:45;;;;;;;2.88;0.80;;;14.90;61.20;;;;;;5103046;28;20028;-65
2023/11/25 08:44:14;;;;;;;2.47;0.68;;;14.90;61.10;;;;;;5077163;28;20090;-66
2023/11/25 08:46:42;;;;;;;1.90;0.88;;;14.90;61.60;;;;;;5102501;28;20479;-64
2023/11/25 08:49:10;;;;;;;1.95;1.10;;;14.90;61.20;;;;;;5103501;28;20110;-64
2023/11/25 08:51:39;;;;;;;2.22;0.73;;;14.90;61.00;;;;;;5102345;28;20176;-64
2023/11/25 08:54:05;;;;;;;1.77;0.73;;;14.90;61.10;;;;;;5099394;28;21056;-65
2023/11/25 08:56:32;;;;;;;1.50;0.80;;;14.90;61.10;;;;;;5104980;28;20054;-65
2023/11/25 08:59:00;;;;;;;1.77;1.00;;;14.90;60.90;;;;;;5086865;28;20166;-65
2023/11/25 09:01:36;;;;;;;1.13;0.70;;;14.90;61.20;;;;;;5104787;28;20035;-65
2023/11/25 09:04:01;;;;;;;2.05;0.63;;;14.90;61.20;;;;;;5103732;28;20040;-66
2023/11/25 09:06:30;;;;;;;4.45;0.90;;;14.90;61.20;;;;;;5104339;28;20053;-64
2023/11/25 09:08:56;;;;;;;1.15;0.70;;;14.90;60.90;;;;;;5099692;28;20058;-66
2023/11/25 09:11:21;;;;;;;1.88;1.00;;;14.90;61.20;;;;;;5102548;28;20712;-66
2023/11/25 09:13:47;;;;;;;2.13;0.90;;;14.90;61.10;;;;;;5103345;28;20084;-65
2023/11/25 09:16:13;;;;;;;2.13;1.05;;;14.90;60.90;;;;;;5104032;28;20176;-66
2023/11/25 09:18:40;;;;;;;2.75;0.80;;;14.90;61.10;;;;;;5103669;28;20032;-66
2023/11/25 09:21:05;;;;;;;2.10;0.82;;;14.90;61.10;;;;;;5103372;28;20058;-65
2023/11/25 09:23:31;;;;;;;1.27;0.70;;;14.90;61.00;;;;;;5097743;28;20044;-65
2023/11/25 09:25:57;;;;;;;2.20;0.90;;;14.90;61.10;;;;;;5102910;28;20032;-65
2023/11/25 09:28:22;;;;;;;1.75;0.88;;;14.90;61.30;;;;;;5102823;28;20050;-65
2023/11/25 09:30:47;;;;;;;0.90;0.57;;;14.90;61.30;;;;;;5099668;28;20040;-65
2023/11/25 09:33:13;;;;;;;1.40;0.95;;;14.90;61.20;;;;;;5098204;28;20046;-65
2023/11/25 09:35:38;;;;;;;2.13;1.02;;;14.90;61.30;;;;;;5095246;28;20285;-65
2023/11/25 09:38:04;;;;;;;1.65;0.73;;;14.90;61.40;;;;;;5101121;28;20023;-65
2023/11/25 09:40:30;;;;;;;1.25;0.60;;;14.90;61.00;;;;;;5101230;28;20110;-65
2023/11/25 09:42:56;;;;;;;3.40;1.08;;;14.90;61.20;;;;;;5098853;28;20023;-65
2023/11/25 09:45:28;;;;;;;1.67;1.05;;;14.90;61.00;;;;;;5101066;28;20154;-65
2023/11/25 09:47:54;;;;;;;3.08;1.00;;;14.90;60.80;;;;;;5103115;28;20032;-65
2023/11/25 09:50:21;;;;;;;2.38;1.00;;;14.90;60.70;;;;;;5098833;28;20070;-66
2023/11/25 09:52:52;;;;;;;2.95;1.13;;;14.90;61.00;;;;;;5093393;28;20052;-66
2023/11/25 09:55:19;;;;;;;2.10;0.93;;;14.90;60.70;;;;;;5101197;28;20092;-66
2023/11/25 09:57:52;;;;;;;3.28;1.00;;;14.90;61.10;;;;;;5103291;28;20402;-64
2023/11/25 10:00:17;;;;;;;2.58;1.05;;;14.90;61.00;;;;;;5095461;28;20039;-64
2023/11/25 10:02:51;;;;;;;2.63;0.77;;;14.90;60.90;;;;;;5100504;28;20509;-66
2023/11/25 10:05:17;;;;;;;2.60;1.10;;;14.90;61.10;;;;;;5097771;28;20034;-65
2023/11/25 10:07:42;;;;;;;2.00;0.98;;;14.90;61.00;;;;;;5101117;28;20043;-65
2023/11/25 10:10:08;;;;;;;1.67;1.00;;;14.90;61.00;;;;;;5100127;28;20030;-65
2023/11/25 10:12:33;;;;;;;3.35;0.93;;;14.80;60.90;;;;;;5096815;28;20118;-66
2023/11/25 10:15:00;;;;;;;1.55;0.98;;;14.90;61.10;;;;;;5101669;28;20050;-66
2023/11/25 10:17:26;;;;;;;2.28;0.88;;;14.90;61.10;;;;;;5097365;28;20273;-65
2023/11/25 10:20:22;;;;;;;1.60;0.90;;;14.90;61.10;;;;;;5096022;28;20034;-65
2023/11/25 10:22:48;;;;;;;;;;;14.90;61.20;;;;;;5083107;28;20035;-65
2023/11/25 10:25:16;;;;;;;2.08;1.10;;;14.90;61.20;;;;;;5099676;28;19912;-65
2023/11/25 10:27:43;;;;;;;2.20;1.30;;;14.80;61.30;;;;;;5100668;28;20115;-66
2023/11/25 10:30:12;;;;;;;3.75;1.40;;;14.80;61.30;;;;;;5094253;28;20091;-65
2023/11/25 10:32:38;;;;;;;2.55;1.33;;;14.80;61.10;;;;;;5096396;28;20047;-66
2023/11/25 10:35:05;;;;;;;1.75;1.10;;;14.80;61.30;;;;;;5096491;28;20044;-66
2023/11/25 10:37:34;;;;;;;1.63;1.17;;;14.80;61.30;;;;;;5100039;28;20024;-65
2023/11/25 10:40:00;;;;;;;2.50;1.10;;;14.80;61.20;;;;;;5097936;28;20440;-66
2023/11/25 10:42:26;;;;;;;2.45;1.20;;;14.80;61.20;;;;;;5101580;28;20088;-65
2023/11/25 10:44:52;;;;;;;2.42;0.82;;;14.80;61.30;;;;;;5098307;28;20047;-65
2023/11/25 10:47:32;;;;;;;1.25;1.00;;;14.80;61.30;;;;;;5099850;28;20499;-65
2023/11/25 10:50:02;;;;;;;1.85;1.00;;;14.80;61.30;;;;;;5097454;28;20064;-66
2023/11/25 10:52:32;;;;;;;2.55;1.10;;;14.80;61.10;;;;;;5096341;28;20106;-66
2023/11/25 10:54:59;;;;;;;4.72;1.13;;;14.80;61.50;;;;;;5097720;28;20028;-64
2023/11/25 10:57:26;;;;;;;1.35;0.98;;;14.80;61.30;;;;;;5100836;28;20097;-66
2023/11/25 10:59:57;;;;;;;1.50;1.23;;;14.80;61.20;;;;;;5098925;28;20038;-65
2023/11/25 11:02:46;;;;;;;2.03;1.25;;;14.80;61.30;;;;;;5098006;28;20032;-66
2023/11/25 11:05:17;;;;;;;2.17;1.30;;;14.70;61.20;;;;;;5096756;28;20031;-65
2023/11/25 11:07:49;;;;;;;2.75;1.80;;;14.80;61.30;;;;;;5068085;28;20032;-66
2023/11/25 11:10:20;;;;;;;3.33;1.75;;;14.70;61.10;;;;;;5097571;28;20039;-66
2023/11/25 11:12:55;;;;;;;2.20;1.50;;;14.80;61.20;;;;;;5096938;28;20030;-67
2023/11/25 11:15:22;;;;;;;3.00;1.27;;;14.70;61.60;;;;;;5095621;28;20032;-66
2023/11/25 11:18:07;;;;;;;1.90;1.00;;;14.70;61.30;;;;;;5098451;28;20524;-65
2023/11/25 11:20:40;;;;;;;1.83;1.02;;;14.80;61.30;;;;;;5097763;28;20096;-66
2023/11/25 11:23:06;;;;;;;1.15;1.05;;;14.80;61.40;;;;;;5099331;28;20039;-66
2023/11/25 11:25:38;;;;;;;1.85;1.20;;;14.80;61.40;;;;;;5097686;28;20100;-63
2023/11/25 11:28:23;;;;;;;2.00;0.90;;;14.70;61.40;;;;;;5096595;28;20035;-64
2023/11/25 11:31:33;;;;;;;2.30;1.13;;;14.70;61.30;;;;;;5096808;28;20035;-63
2023/11/25 11:34:00;;;;;;;1.75;0.77;;;14.70;61.20;;;;;;5066323;28;20055;-65
2023/11/25 11:36:29;;;;;;;2.13;0.88;;;14.70;61.30;;;;;;5093670;28;20712;-65
2023/11/25 11:38:56;;;;;;;1.48;0.80;;;14.70;61.40;;;;;;5094617;28;20032;-66
2023/11/25 11:41:21;;;;;;;1.52;0.90;;;14.70;61.50;;;;;;5095546;28;20453;-66
2023/11/25 11:44:07;;;;;;;1.52;0.93;;;14.70;61.40;;;;;;5100237;28;20085;-66
2023/11/25 11:46:41;;;;;;;3.78;1.80;;;14.70;61.50;;;;;;5094018;28;20024;-66
2023/11/25 11:49:08;;;;;;;2.22;1.08;;;14.70;61.40;;;;;;5089963;28;20493;-66
2023/11/25 11:51:34;;;;;;;2.13;0.90;;;14.70;61.40;;;;;;5098975;28;20114;-65
2023/11/25 11:54:21;;;;;;;1.08;0.90;;;14.70;61.50;;;;;;5093204;28;20028;-66
2023/11/25 11:57:03;;;;;;;1.98;1.00;;;14.70;61.40;;;;;;5078788;28;20043;-65
2023/11/25 12:00:00;;;;;;;1.85;0.82;;;14.70;61.50;;;;;;5095506;28;20123;-65
2023/11/25 12:02:34;;;;;;;2.88;0.95;;;14.70;61.30;;;;;;5094057;28;20297;-66
2023/11/25 12:05:00;;;;;;;1.42;0.75;;;14.70;61.40;;;;;;5091142;28;20464;-60
2023/11/25 12:07:27;;;;;;;1.08;0.77;;;14.70;61.60;;;;;;5096716;28;20062;-63
2023/11/25 12:09:54;;;;;;;1.10;0.73;;;14.70;61.70;;;;;;5101010;28;20259;-66
2023/11/25 12:12:20;;;;;;;1.52;0.70;;;14.70;61.40;;;;;;5094225;28;20032;-64
2023/11/25 12:14:47;;;;;;;1.75;0.90;;;14.70;61.30;;;;;;5097718;28;20032;-65
2023/11/25 12:17:13;;;;;;;1.95;0.77;;;14.70;61.40;;;;;;5097325;28;20657;-64
2023/11/25 12:19:39;;;;;;;2.30;0.70;;;14.70;61.50;;;;;;5091488;28;20028;-65
2023/11/25 12:22:05;;;;;;;2.13;0.98;;;14.70;61.80;;;;;;5092181;28;20024;-64
2023/11/25 12:24:33;;;;;;;1.65;0.70;;;14.70;61.70;;;;;;5095462;28;20019;-65
2023/11/25 12:27:00;;;;;;;2.65;1.15;;;14.70;62.00;;;;;;5099006;28;20028;-66
2023/11/25 12:29:26;;;;;;;1.00;0.73;;;14.70;61.70;;;;;;5098619;28;20050;-67
2023/11/25 12:31:51;;;;;;;2.45;1.00;;;14.70;61.60;;;;;;5091807;28;20036;-64
2023/11/25 12:34:17;;;;;;;1.30;0.90;;;14.70;61.70;;;;;;5094930;28;20411;-65
2023/11/25 12:36:42;;;;;;;2.45;1.08;;;14.70;61.60;;;;;;5097519;28;20493;-65
2023/11/25 12:39:12;;;;;;;1.27;0.80;;;14.70;61.60;;;;;;5095509;28;20039;-65
2023/11/25 12:41:39;;;;;;;1.42;0.65;;;14.70;61.70;;;;;;5094621;28;20051;-65
2023/11/25 12:44:11;;;;;;;0.98;0.85;;;14.70;61.90;;;;;;5096904;28;20118;-65
2023/11/25 12:46:42;;;;;;;1.13;0.70;;;14.70;61.80;;;;;;5098506;28;20045;-65
2023/11/25 12:49:23;;;;;;;2.65;0.73;;;14.70;61.90;;;;;;5095515;28;20382;-65